Terminal Aerodrome Forecast
Issued by NWS

Home | Current Version | Previous Version | Text Only | Print | Product List | Glossary On
Versions: 1 2 3 4 5 6 7 8 9 10 11 12 13 14 15 16
000
FTUS41 KCAR 230500 RRA
TAFFVE
TAF
KFVE 230547Z 2306/2406 09005KT 2SM -RA BR OVC003
     FM231100 03006KT 5SM -RA BR OVC005
     FM231600 35010KT P6SM BKN015 OVC020
     FM232200 35010KT 5SM -RA BR OVC015
     FM240300 34010KT 3SM -RASN OVC008=

USA.gov is the U.S. government's official web portal to all federal, state and local government web resources and services.